sensor_id;sensor_type;location;lat;lon;timestamp;P1;durP1;ratioP1;P2;durP2;ratioP2
9892;SDS011;4985;49.092;8.542;2023-04-22T00:00:57;2.83;;;2.03;;
9892;SDS011;4985;49.092;8.542;2023-04-22T00:03:24;3.13;;;2.47;;
9892;SDS011;4985;49.092;8.542;2023-04-22T00:05:53;3.10;;;2.30;;
9892;SDS011;4985;49.092;8.542;2023-04-22T00:08:19;3.03;;;2.43;;
9892;SDS011;4985;49.092;8.542;2023-04-22T00:10:46;3.70;;;2.23;;
9892;SDS011;4985;49.092;8.542;2023-04-22T00:13:13;3.47;;;2.17;;
9892;SDS011;4985;49.092;8.542;2023-04-22T00:15:39;3.13;;;2.40;;
9892;SDS011;4985;49.092;8.542;2023-04-22T00:18:06;3.30;;;2.37;;
9892;SDS011;4985;49.092;8.542;2023-04-22T00:20:37;3.77;;;2.33;;
9892;SDS011;4985;49.092;8.542;2023-04-22T00:23:06;5.00;;;2.83;;
9892;SDS011;4985;49.092;8.542;2023-04-22T00:25:32;2.63;;;2.23;;
9892;SDS011;4985;49.092;8.542;2023-04-22T00:27:59;3.67;;;2.47;;
9892;SDS011;4985;49.092;8.542;2023-04-22T00:30:26;2.77;;;2.23;;
9892;SDS011;4985;49.092;8.542;2023-04-22T00:32:52;3.33;;;2.50;;
9892;SDS011;4985;49.092;8.542;2023-04-22T00:35:19;2.50;;;2.27;;
9892;SDS011;4985;49.092;8.542;2023-04-22T00:37:45;2.67;;;2.27;;
9892;SDS011;4985;49.092;8.542;2023-04-22T00:40:13;4.20;;;2.83;;
9892;SDS011;4985;49.092;8.542;2023-04-22T00:42:40;2.93;;;2.13;;
9892;SDS011;4985;49.092;8.542;2023-04-22T00:45:09;3.10;;;2.67;;
9892;SDS011;4985;49.092;8.542;2023-04-22T00:47:36;4.43;;;2.43;;
9892;SDS011;4985;49.092;8.542;2023-04-22T00:50:03;2.93;;;2.57;;
9892;SDS011;4985;49.092;8.542;2023-04-22T00:52:31;3.90;;;2.57;;
9892;SDS011;4985;49.092;8.542;2023-04-22T00:54:57;2.50;;;2.27;;
9892;SDS011;4985;49.092;8.542;2023-04-22T00:57:26;2.50;;;2.27;;
9892;SDS011;4985;49.092;8.542;2023-04-22T00:59:55;2.40;;;2.20;;
9892;SDS011;4985;49.092;8.542;2023-04-22T01:02:22;3.43;;;2.40;;
9892;SDS011;4985;49.092;8.542;2023-04-22T01:04:49;2.47;;;1.97;;
9892;SDS011;4985;49.092;8.542;2023-04-22T01:07:18;3.70;;;2.60;;
9892;SDS011;4985;49.092;8.542;2023-04-22T01:09:44;3.37;;;2.33;;
9892;SDS011;4985;49.092;8.542;2023-04-22T01:12:11;2.40;;;2.20;;
9892;SDS011;4985;49.092;8.542;2023-04-22T01:14:39;3.37;;;2.30;;
9892;SDS011;4985;49.092;8.542;2023-04-22T01:17:06;2.50;;;2.23;;
9892;SDS011;4985;49.092;8.542;2023-04-22T01:19:34;2.47;;;2.27;;
9892;SDS011;4985;49.092;8.542;2023-04-22T01:22:01;2.73;;;2.27;;
9892;SDS011;4985;49.092;8.542;2023-04-22T01:24:30;4.13;;;2.40;;
9892;SDS011;4985;49.092;8.542;2023-04-22T01:26:58;2.70;;;1.97;;
9892;SDS011;4985;49.092;8.542;2023-04-22T01:29:26;2.33;;;2.07;;
9892;SDS011;4985;49.092;8.542;2023-04-22T01:31:52;4.13;;;2.30;;
9892;SDS011;4985;49.092;8.542;2023-04-22T01:34:20;2.83;;;2.17;;
9892;SDS011;4985;49.092;8.542;2023-04-22T01:36:47;2.77;;;2.17;;
9892;SDS011;4985;49.092;8.542;2023-04-22T01:39:14;2.30;;;2.10;;
9892;SDS011;4985;49.092;8.542;2023-04-22T01:41:42;2.30;;;1.77;;
9892;SDS011;4985;49.092;8.542;2023-04-22T01:44:09;3.27;;;2.20;;
9892;SDS011;4985;49.092;8.542;2023-04-22T01:46:35;4.90;;;2.37;;
9892;SDS011;4985;49.092;8.542;2023-04-22T01:49:02;3.63;;;2.50;;
9892;SDS011;4985;49.092;8.542;2023-04-22T01:51:28;3.60;;;2.13;;
9892;SDS011;4985;49.092;8.542;2023-04-22T01:53:55;2.77;;;2.13;;
9892;SDS011;4985;49.092;8.542;2023-04-22T01:56:22;3.27;;;2.47;;
9892;SDS011;4985;49.092;8.542;2023-04-22T01:58:51;3.33;;;2.30;;
9892;SDS011;4985;49.092;8.542;2023-04-22T02:01:17;3.83;;;2.20;;
9892;SDS011;4985;49.092;8.542;2023-04-22T02:03:44;4.20;;;2.23;;
9892;SDS011;4985;49.092;8.542;2023-04-22T02:06:10;4.40;;;2.20;;
9892;SDS011;4985;49.092;8.542;2023-04-22T02:08:37;3.10;;;2.20;;
9892;SDS011;4985;49.092;8.542;2023-04-22T02:11:03;3.13;;;2.30;;
9892;SDS011;4985;49.092;8.542;2023-04-22T02:13:34;3.00;;;2.60;;
9892;SDS011;4985;49.092;8.542;2023-04-22T02:16:02;2.67;;;2.23;;
9892;SDS011;4985;49.092;8.542;2023-04-22T02:18:29;3.17;;;2.53;;
9892;SDS011;4985;49.092;8.542;2023-04-22T02:20:56;2.53;;;2.00;;
9892;SDS011;4985;49.092;8.542;2023-04-22T02:23:22;2.60;;;2.17;;
9892;SDS011;4985;49.092;8.542;2023-04-22T02:25:50;2.43;;;2.23;;
9892;SDS011;4985;49.092;8.542;2023-04-22T02:28:17;2.40;;;2.07;;
9892;SDS011;4985;49.092;8.542;2023-04-22T02:30:43;3.10;;;2.33;;
9892;SDS011;4985;49.092;8.542;2023-04-22T02:33:11;3.00;;;2.30;;
9892;SDS011;4985;49.092;8.542;2023-04-22T02:35:38;2.90;;;1.83;;
9892;SDS011;4985;49.092;8.542;2023-04-22T02:38:05;3.47;;;2.47;;
9892;SDS011;4985;49.092;8.542;2023-04-22T02:40:31;2.67;;;2.10;;
9892;SDS011;4985;49.092;8.542;2023-04-22T02:42:58;2.83;;;2.20;;
9892;SDS011;4985;49.092;8.542;2023-04-22T02:45:25;2.77;;;2.30;;
9892;SDS011;4985;49.092;8.542;2023-04-22T02:47:51;2.20;;;2.00;;
9892;SDS011;4985;49.092;8.542;2023-04-22T02:50:20;2.17;;;1.87;;
9892;SDS011;4985;49.092;8.542;2023-04-22T02:52:46;2.30;;;1.87;;
9892;SDS011;4985;49.092;8.542;2023-04-22T02:55:13;2.07;;;1.87;;
9892;SDS011;4985;49.092;8.542;2023-04-22T02:57:39;3.27;;;2.00;;
9892;SDS011;4985;49.092;8.542;2023-04-22T03:00:06;3.77;;;2.10;;
9892;SDS011;4985;49.092;8.542;2023-04-22T03:02:35;2.73;;;1.80;;
9892;SDS011;4985;49.092;8.542;2023-04-22T03:05:02;3.57;;;1.70;;
9892;SDS011;4985;49.092;8.542;2023-04-22T03:07:30;3.47;;;1.97;;
9892;SDS011;4985;49.092;8.542;2023-04-22T03:09:57;3.07;;;2.37;;
9892;SDS011;4985;49.092;8.542;2023-04-22T03:12:23;3.30;;;2.53;;
9892;SDS011;4985;49.092;8.542;2023-04-22T03:14:50;3.67;;;2.70;;
9892;SDS011;4985;49.092;8.542;2023-04-22T03:17:17;3.67;;;2.73;;
9892;SDS011;4985;49.092;8.542;2023-04-22T03:19:44;5.00;;;2.30;;
9892;SDS011;4985;49.092;8.542;2023-04-22T03:22:11;3.33;;;1.87;;
9892;SDS011;4985;49.092;8.542;2023-04-22T03:24:39;3.87;;;2.10;;
9892;SDS011;4985;49.092;8.542;2023-04-22T03:27:06;2.30;;;2.10;;
9892;SDS011;4985;49.092;8.542;2023-04-22T03:29:33;2.13;;;1.93;;
9892;SDS011;4985;49.092;8.542;2023-04-22T03:31:59;3.90;;;2.30;;
9892;SDS011;4985;49.092;8.542;2023-04-22T03:34:26;2.43;;;2.10;;
9892;SDS011;4985;49.092;8.542;2023-04-22T03:36:52;2.60;;;2.03;;
9892;SDS011;4985;49.092;8.542;2023-04-22T03:39:19;3.70;;;2.13;;
9892;SDS011;4985;49.092;8.542;2023-04-22T03:41:47;2.43;;;2.23;;
9892;SDS011;4985;49.092;8.542;2023-04-22T03:44:13;2.30;;;1.80;;
9892;SDS011;4985;49.092;8.542;2023-04-22T03:46:40;3.00;;;2.40;;
9892;SDS011;4985;49.092;8.542;2023-04-22T03:49:07;2.83;;;1.90;;
9892;SDS011;4985;49.092;8.542;2023-04-22T03:51:33;3.20;;;2.07;;
9892;SDS011;4985;49.092;8.542;2023-04-22T03:54:00;3.13;;;2.03;;
9892;SDS011;4985;49.092;8.542;2023-04-22T03:56:26;3.90;;;1.83;;
9892;SDS011;4985;49.092;8.542;2023-04-22T03:58:54;2.73;;;2.00;;
9892;SDS011;4985;49.092;8.542;2023-04-22T04:01:21;1.70;;;1.60;;
9892;SDS011;4985;49.092;8.542;2023-04-22T04:03:48;2.37;;;2.07;;
9892;SDS011;4985;49.092;8.542;2023-04-22T04:06:15;2.93;;;2.20;;
9892;SDS011;4985;49.092;8.542;2023-04-22T04:08:41;3.13;;;2.07;;
9892;SDS011;4985;49.092;8.542;2023-04-22T04:11:08;3.60;;;2.30;;
9892;SDS011;4985;49.092;8.542;2023-04-22T04:13:35;2.93;;;2.30;;
9892;SDS011;4985;49.092;8.542;2023-04-22T04:16:03;2.50;;;2.00;;
9892;SDS011;4985;49.092;8.542;2023-04-22T04:18:29;3.37;;;2.30;;
9892;SDS011;4985;49.092;8.542;2023-04-22T04:20:56;2.67;;;2.10;;
9892;SDS011;4985;49.092;8.542;2023-04-22T04:23:23;2.30;;;1.93;;
9892;SDS011;4985;49.092;8.542;2023-04-22T04:25:51;2.87;;;2.03;;
9892;SDS011;4985;49.092;8.542;2023-04-22T04:28:17;6.00;;;2.27;;
9892;SDS011;4985;49.092;8.542;2023-04-22T04:30:44;2.83;;;2.40;;
9892;SDS011;4985;49.092;8.542;2023-04-22T04:33:12;4.03;;;2.67;;
9892;SDS011;4985;49.092;8.542;2023-04-22T04:35:40;3.07;;;2.67;;
9892;SDS011;4985;49.092;8.542;2023-04-22T04:38:08;3.00;;;2.30;;
9892;SDS011;4985;49.092;8.542;2023-04-22T04:40:35;2.57;;;2.27;;
9892;SDS011;4985;49.092;8.542;2023-04-22T04:43:02;4.47;;;2.47;;
9892;SDS011;4985;49.092;8.542;2023-04-22T04:45:32;4.53;;;3.03;;
9892;SDS011;4985;49.092;8.542;2023-04-22T04:48:00;5.70;;;3.70;;
9892;SDS011;4985;49.092;8.542;2023-04-22T04:50:28;5.60;;;3.60;;
9892;SDS011;4985;49.092;8.542;2023-04-22T04:52:55;5.40;;;3.57;;
9892;SDS011;4985;49.092;8.542;2023-04-22T04:55:22;7.13;;;3.37;;
9892;SDS011;4985;49.092;8.542;2023-04-22T04:57:48;4.00;;;2.97;;
9892;SDS011;4985;49.092;8.542;2023-04-22T05:00:15;3.63;;;2.83;;
9892;SDS011;4985;49.092;8.542;2023-04-22T05:02:42;4.27;;;2.90;;
9892;SDS011;4985;49.092;8.542;2023-04-22T05:05:08;3.63;;;2.80;;
9892;SDS011;4985;49.092;8.542;2023-04-22T05:07:37;4.10;;;2.67;;
9892;SDS011;4985;49.092;8.542;2023-04-22T05:10:03;3.87;;;2.90;;
9892;SDS011;4985;49.092;8.542;2023-04-22T05:12:31;4.97;;;2.80;;
9892;SDS011;4985;49.092;8.542;2023-04-22T05:14:57;4.67;;;2.77;;
9892;SDS011;4985;49.092;8.542;2023-04-22T05:17:24;3.20;;;1.97;;
9892;SDS011;4985;49.092;8.542;2023-04-22T05:19:50;2.83;;;2.10;;
9892;SDS011;4985;49.092;8.542;2023-04-22T05:22:17;5.17;;;3.23;;
9892;SDS011;4985;49.092;8.542;2023-04-22T05:24:45;5.20;;;3.97;;
9892;SDS011;4985;49.092;8.542;2023-04-22T05:27:12;3.77;;;3.10;;
9892;SDS011;4985;49.092;8.542;2023-04-22T05:29:39;6.37;;;3.20;;
9892;SDS011;4985;49.092;8.542;2023-04-22T05:32:05;5.30;;;3.40;;
9892;SDS011;4985;49.092;8.542;2023-04-22T05:34:32;7.07;;;4.93;;
9892;SDS011;4985;49.092;8.542;2023-04-22T05:36:59;2.93;;;2.67;;
9892;SDS011;4985;49.092;8.542;2023-04-22T05:39:28;4.57;;;3.13;;
9892;SDS011;4985;49.092;8.542;2023-04-22T05:41:55;4.27;;;3.50;;
9892;SDS011;4985;49.092;8.542;2023-04-22T05:44:22;3.43;;;2.93;;
9892;SDS011;4985;49.092;8.542;2023-04-22T05:46:49;4.23;;;2.50;;
9892;SDS011;4985;49.092;8.542;2023-04-22T05:49:15;2.77;;;2.37;;
9892;SDS011;4985;49.092;8.542;2023-04-22T05:51:42;3.77;;;2.47;;
9892;SDS011;4985;49.092;8.542;2023-04-22T05:54:08;3.80;;;2.93;;
9892;SDS011;4985;49.092;8.542;2023-04-22T05:56:35;4.60;;;2.70;;
9892;SDS011;4985;49.092;8.542;2023-04-22T05:59:03;4.43;;;2.93;;
9892;SDS011;4985;49.092;8.542;2023-04-22T06:01:30;3.60;;;2.80;;
9892;SDS011;4985;49.092;8.542;2023-04-22T06:03:56;3.20;;;2.47;;
9892;SDS011;4985;49.092;8.542;2023-04-22T06:06:23;3.47;;;2.80;;
9892;SDS011;4985;49.092;8.542;2023-04-22T06:08:49;4.87;;;2.80;;
9892;SDS011;4985;49.092;8.542;2023-04-22T06:11:16;4.43;;;2.97;;
9892;SDS011;4985;49.092;8.542;2023-04-22T06:13:43;5.60;;;3.07;;
9892;SDS011;4985;49.092;8.542;2023-04-22T06:16:11;4.03;;;2.80;;
9892;SDS011;4985;49.092;8.542;2023-04-22T06:18:38;3.47;;;2.83;;
9892;SDS011;4985;49.092;8.542;2023-04-22T06:21:04;3.47;;;2.77;;
9892;SDS011;4985;49.092;8.542;2023-04-22T06:23:31;4.53;;;2.97;;
9892;SDS011;4985;49.092;8.542;2023-04-22T06:25:57;5.20;;;3.23;;
9892;SDS011;4985;49.092;8.542;2023-04-22T06:28:25;4.87;;;3.30;;
9892;SDS011;4985;49.092;8.542;2023-04-22T06:30:52;3.70;;;2.93;;
9892;SDS011;4985;49.092;8.542;2023-04-22T06:33:20;5.23;;;3.57;;
9892;SDS011;4985;49.092;8.542;2023-04-22T06:35:46;3.93;;;3.27;;
9892;SDS011;4985;49.092;8.542;2023-04-22T06:38:13;4.27;;;3.27;;
9892;SDS011;4985;49.092;8.542;2023-04-22T06:40:40;3.73;;;3.00;;
9892;SDS011;4985;49.092;8.542;2023-04-22T06:43:07;3.67;;;2.83;;
9892;SDS011;4985;49.092;8.542;2023-04-22T06:45:34;4.40;;;3.23;;
9892;SDS011;4985;49.092;8.542;2023-04-22T06:48:00;6.27;;;3.50;;
9892;SDS011;4985;49.092;8.542;2023-04-22T06:50:28;6.93;;;4.70;;
9892;SDS011;4985;49.092;8.542;2023-04-22T06:52:55;6.30;;;3.63;;
9892;SDS011;4985;49.092;8.542;2023-04-22T06:55:21;3.97;;;3.23;;
9892;SDS011;4985;49.092;8.542;2023-04-22T06:57:48;4.90;;;3.10;;
9892;SDS011;4985;49.092;8.542;2023-04-22T07:00:16;4.97;;;3.27;;
9892;SDS011;4985;49.092;8.542;2023-04-22T07:02:42;3.10;;;2.80;;
9892;SDS011;4985;49.092;8.542;2023-04-22T07:05:09;3.70;;;3.03;;
9892;SDS011;4985;49.092;8.542;2023-04-22T07:07:37;3.13;;;2.83;;
9892;SDS011;4985;49.092;8.542;2023-04-22T07:10:04;4.00;;;2.80;;
9892;SDS011;4985;49.092;8.542;2023-04-22T07:12:31;2.80;;;2.30;;
9892;SDS011;4985;49.092;8.542;2023-04-22T07:14:57;5.80;;;2.80;;
9892;SDS011;4985;49.092;8.542;2023-04-22T07:17:24;4.87;;;2.80;;
9892;SDS011;4985;49.092;8.542;2023-04-22T07:19:50;3.20;;;2.77;;
9892;SDS011;4985;49.092;8.542;2023-04-22T07:22:17;5.30;;;2.67;;
9892;SDS011;4985;49.092;8.542;2023-04-22T07:24:45;2.90;;;2.27;;
9892;SDS011;4985;49.092;8.542;2023-04-22T07:27:11;2.70;;;2.20;;
9892;SDS011;4985;49.092;8.542;2023-04-22T07:29:38;2.97;;;2.60;;
9892;SDS011;4985;49.092;8.542;2023-04-22T07:32:05;3.33;;;2.77;;
9892;SDS011;4985;49.092;8.542;2023-04-22T07:34:31;3.87;;;3.07;;
9892;SDS011;4985;49.092;8.542;2023-04-22T07:36:58;6.10;;;2.77;;
9892;SDS011;4985;49.092;8.542;2023-04-22T07:39:25;3.00;;;2.63;;
9892;SDS011;4985;49.092;8.542;2023-04-22T07:41:53;2.77;;;2.50;;
9892;SDS011;4985;49.092;8.542;2023-04-22T07:44:20;3.60;;;2.80;;
9892;SDS011;4985;49.092;8.542;2023-04-22T07:46:47;3.10;;;2.30;;
9892;SDS011;4985;49.092;8.542;2023-04-22T07:49:14;3.40;;;2.67;;
9892;SDS011;4985;49.092;8.542;2023-04-22T07:51:41;3.30;;;2.47;;
9892;SDS011;4985;49.092;8.542;2023-04-22T07:54:08;3.70;;;2.57;;
9892;SDS011;4985;49.092;8.542;2023-04-22T07:56:35;3.43;;;2.47;;
9892;SDS011;4985;49.092;8.542;2023-04-22T07:59:02;3.10;;;2.50;;
9892;SDS011;4985;49.092;8.542;2023-04-22T08:01:29;2.93;;;2.40;;
9892;SDS011;4985;49.092;8.542;2023-04-22T08:03:56;3.70;;;2.80;;
9892;SDS011;4985;49.092;8.542;2023-04-22T08:06:23;2.97;;;2.20;;
9892;SDS011;4985;49.092;8.542;2023-04-22T08:08:49;3.10;;;2.40;;
9892;SDS011;4985;49.092;8.542;2023-04-22T08:11:16;4.23;;;2.27;;
9892;SDS011;4985;49.092;8.542;2023-04-22T08:13:43;3.63;;;2.30;;
9892;SDS011;4985;49.092;8.542;2023-04-22T08:16:11;3.23;;;2.13;;
9892;SDS011;4985;49.092;8.542;2023-04-22T08:18:37;3.37;;;2.60;;
9892;SDS011;4985;49.092;8.542;2023-04-22T08:21:04;2.23;;;2.00;;
9892;SDS011;4985;49.092;8.542;2023-04-22T08:23:30;2.37;;;2.07;;
9892;SDS011;4985;49.092;8.542;2023-04-22T08:25:57;2.53;;;1.90;;
9892;SDS011;4985;49.092;8.542;2023-04-22T08:28:24;2.70;;;1.90;;
9892;SDS011;4985;49.092;8.542;2023-04-22T08:30:50;2.77;;;2.03;;
9892;SDS011;4985;49.092;8.542;2023-04-22T08:33:18;3.80;;;2.00;;
9892;SDS011;4985;49.092;8.542;2023-04-22T08:35:45;3.60;;;2.30;;
9892;SDS011;4985;49.092;8.542;2023-04-22T08:38:12;2.20;;;2.00;;
9892;SDS011;4985;49.092;8.542;2023-04-22T08:40:39;4.60;;;2.03;;
9892;SDS011;4985;49.092;8.542;2023-04-22T08:43:06;2.73;;;2.10;;
9892;SDS011;4985;49.092;8.542;2023-04-22T08:45:33;2.97;;;2.30;;
9892;SDS011;4985;49.092;8.542;2023-04-22T08:48:02;3.57;;;2.30;;
9892;SDS011;4985;49.092;8.542;2023-04-22T08:50:31;2.20;;;1.90;;
9892;SDS011;4985;49.092;8.542;2023-04-22T08:52:58;2.20;;;1.77;;
9892;SDS011;4985;49.092;8.542;2023-04-22T08:55:24;3.30;;;1.87;;
9892;SDS011;4985;49.092;8.542;2023-04-22T08:57:52;2.50;;;1.93;;
9892;SDS011;4985;49.092;8.542;2023-04-22T09:00:19;4.03;;;1.87;;
9892;SDS011;4985;49.092;8.542;2023-04-22T09:02:46;3.90;;;2.30;;
9892;SDS011;4985;49.092;8.542;2023-04-22T09:05:15;3.27;;;2.17;;
9892;SDS011;4985;49.092;8.542;2023-04-22T09:07:43;3.53;;;1.70;;
9892;SDS011;4985;49.092;8.542;2023-04-22T09:10:10;2.20;;;2.00;;
9892;SDS011;4985;49.092;8.542;2023-04-22T09:12:37;3.33;;;2.30;;
9892;SDS011;4985;49.092;8.542;2023-04-22T09:15:06;2.10;;;1.90;;
9892;SDS011;4985;49.092;8.542;2023-04-22T09:17:34;2.67;;;2.13;;
9892;SDS011;4985;49.092;8.542;2023-04-22T09:20:02;2.17;;;1.90;;
9892;SDS011;4985;49.092;8.542;2023-04-22T09:22:36;2.30;;;2.00;;
9892;SDS011;4985;49.092;8.542;2023-04-22T09:25:13;3.10;;;2.00;;
9892;SDS011;4985;49.092;8.542;2023-04-22T09:27:46;2.93;;;2.00;;
9892;SDS011;4985;49.092;8.542;2023-04-22T09:30:13;3.10;;;2.27;;
9892;SDS011;4985;49.092;8.542;2023-04-22T09:32:42;2.63;;;1.80;;
9892;SDS011;4985;49.092;8.542;2023-04-22T09:35:21;2.53;;;2.17;;
9892;SDS011;4985;49.092;8.542;2023-04-22T09:37:51;2.93;;;2.30;;
9892;SDS011;4985;49.092;8.542;2023-04-22T09:40:19;2.40;;;2.07;;
9892;SDS011;4985;49.092;8.542;2023-04-22T09:42:48;3.70;;;2.10;;
9892;SDS011;4985;49.092;8.542;2023-04-22T09:45:28;4.33;;;2.50;;
9892;SDS011;4985;49.092;8.542;2023-04-22T09:47:58;2.77;;;2.03;;
9892;SDS011;4985;49.092;8.542;2023-04-22T09:50:31;3.30;;;2.33;;
9892;SDS011;4985;49.092;8.542;2023-04-22T09:52:58;3.30;;;2.37;;
9892;SDS011;4985;49.092;8.542;2023-04-22T09:55:28;5.17;;;2.67;;
9892;SDS011;4985;49.092;8.542;2023-04-22T09:57:56;4.03;;;2.30;;
9892;SDS011;4985;49.092;8.542;2023-04-22T10:00:24;2.27;;;1.90;;
9892;SDS011;4985;49.092;8.542;2023-04-22T10:02:54;3.37;;;1.97;;
9892;SDS011;4985;49.092;8.542;2023-04-22T10:05:21;3.43;;;1.90;;
9892;SDS011;4985;49.092;8.542;2023-04-22T10:07:49;5.80;;;2.30;;
9892;SDS011;4985;49.092;8.542;2023-04-22T10:10:16;2.10;;;1.90;;
9892;SDS011;4985;49.092;8.542;2023-04-22T10:12:44;4.00;;;2.10;;
9892;SDS011;4985;49.092;8.542;2023-04-22T10:15:12;1.93;;;1.60;;
9892;SDS011;4985;49.092;8.542;2023-04-22T10:17:39;2.00;;;1.80;;
9892;SDS011;4985;49.092;8.542;2023-04-22T10:20:08;3.77;;;1.60;;
9892;SDS011;4985;49.092;8.542;2023-04-22T10:22:38;2.20;;;2.00;;
9892;SDS011;4985;49.092;8.542;2023-04-22T10:25:10;1.97;;;1.60;;
9892;SDS011;4985;49.092;8.542;2023-04-22T10:27:38;2.40;;;1.80;;
9892;SDS011;4985;49.092;8.542;2023-04-22T10:30:07;2.50;;;1.90;;
9892;SDS011;4985;49.092;8.542;2023-04-22T10:32:35;2.20;;;1.80;;
9892;SDS011;4985;49.092;8.542;2023-04-22T10:35:12;7.10;;;2.00;;
9892;SDS011;4985;49.092;8.542;2023-04-22T10:37:40;2.73;;;1.80;;
9892;SDS011;4985;49.092;8.542;2023-04-22T10:40:10;2.20;;;1.80;;
9892;SDS011;4985;49.092;8.542;2023-04-22T10:42:40;3.90;;;1.87;;
9892;SDS011;4985;49.092;8.542;2023-04-22T10:45:12;2.30;;;2.00;;
9892;SDS011;4985;49.092;8.542;2023-04-22T10:47:39;3.00;;;1.90;;
9892;SDS011;4985;49.092;8.542;2023-04-22T10:50:11;2.53;;;2.00;;
9892;SDS011;4985;49.092;8.542;2023-04-22T10:52:40;3.20;;;1.90;;
9892;SDS011;4985;49.092;8.542;2023-04-22T10:55:08;4.50;;;2.00;;
9892;SDS011;4985;49.092;8.542;2023-04-22T10:57:36;2.13;;;1.80;;
9892;SDS011;4985;49.092;8.542;2023-04-22T11:00:22;3.87;;;2.00;;
9892;SDS011;4985;49.092;8.542;2023-04-22T11:03:07;3.13;;;1.60;;
9892;SDS011;4985;49.092;8.542;2023-04-22T11:05:36;2.70;;;1.77;;
9892;SDS011;4985;49.092;8.542;2023-04-22T11:08:05;2.67;;;1.70;;
9892;SDS011;4985;49.092;8.542;2023-04-22T11:10:37;5.60;;;2.00;;
9892;SDS011;4985;49.092;8.542;2023-04-22T11:13:09;2.83;;;1.80;;
9892;SDS011;4985;49.092;8.542;2023-04-22T11:15:39;4.40;;;2.00;;
9892;SDS011;4985;49.092;8.542;2023-04-22T11:18:17;1.87;;;1.60;;
9892;SDS011;4985;49.092;8.542;2023-04-22T11:20:45;1.97;;;1.70;;
9892;SDS011;4985;49.092;8.542;2023-04-22T11:23:16;2.20;;;1.70;;
9892;SDS011;4985;49.092;8.542;2023-04-22T11:25:44;2.80;;;1.70;;
9892;SDS011;4985;49.092;8.542;2023-04-22T11:28:10;1.97;;;1.60;;
9892;SDS011;4985;49.092;8.542;2023-04-22T11:30:38;3.27;;;1.77;;
9892;SDS011;4985;49.092;8.542;2023-04-22T11:33:05;4.13;;;1.77;;
9892;SDS011;4985;49.092;8.542;2023-04-22T11:35:34;2.97;;;1.67;;
9892;SDS011;4985;49.092;8.542;2023-04-22T11:38:02;1.90;;;1.67;;
9892;SDS011;4985;49.092;8.542;2023-04-22T11:40:30;2.43;;;1.87;;
9892;SDS011;4985;49.092;8.542;2023-04-22T11:42:59;5.27;;;1.83;;
9892;SDS011;4985;49.092;8.542;2023-04-22T11:45:27;2.67;;;1.53;;
9892;SDS011;4985;49.092;8.542;2023-04-22T11:47:57;1.90;;;1.60;;
9892;SDS011;4985;49.092;8.542;2023-04-22T11:50:24;2.77;;;1.70;;
9892;SDS011;4985;49.092;8.542;2023-04-22T11:52:54;3.30;;;1.50;;
9892;SDS011;4985;49.092;8.542;2023-04-22T11:55:22;3.07;;;1.63;;
9892;SDS011;4985;49.092;8.542;2023-04-22T11:57:52;2.50;;;1.80;;
9892;SDS011;4985;49.092;8.542;2023-04-22T12:00:21;2.70;;;1.70;;
9892;SDS011;4985;49.092;8.542;2023-04-22T12:02:57;2.50;;;1.43;;
9892;SDS011;4985;49.092;8.542;2023-04-22T12:05:31;1.83;;;1.63;;
9892;SDS011;4985;49.092;8.542;2023-04-22T12:07:59;1.83;;;1.57;;
9892;SDS011;4985;49.092;8.542;2023-04-22T12:10:26;2.63;;;1.63;;
9892;SDS011;4985;49.092;8.542;2023-04-22T12:12:53;2.43;;;1.40;;
9892;SDS011;4985;49.092;8.542;2023-04-22T12:15:19;1.90;;;1.60;;
9892;SDS011;4985;49.092;8.542;2023-04-22T12:17:48;3.30;;;1.80;;
9892;SDS011;4985;49.092;8.542;2023-04-22T12:20:16;4.10;;;1.40;;
9892;SDS011;4985;49.092;8.542;2023-04-22T12:22:43;2.27;;;1.40;;
9892;SDS011;4985;49.092;8.542;2023-04-22T12:25:10;2.90;;;1.80;;
9892;SDS011;4985;49.092;8.542;2023-04-22T12:27:36;4.30;;;1.70;;
9892;SDS011;4985;49.092;8.542;2023-04-22T12:30:04;3.20;;;1.50;;
9892;SDS011;4985;49.092;8.542;2023-04-22T12:32:31;2.00;;;1.57;;
9892;SDS011;4985;49.092;8.542;2023-04-22T12:34:58;1.60;;;1.50;;
9892;SDS011;4985;49.092;8.542;2023-04-22T12:37:26;2.23;;;1.60;;
9892;SDS011;4985;49.092;8.542;2023-04-22T12:39:52;2.53;;;1.60;;
9892;SDS011;4985;49.092;8.542;2023-04-22T12:42:19;2.73;;;1.77;;
9892;SDS011;4985;49.092;8.542;2023-04-22T12:44:45;1.47;;;1.30;;
9892;SDS011;4985;49.092;8.542;2023-04-22T12:47:12;4.43;;;2.07;;
9892;SDS011;4985;49.092;8.542;2023-04-22T12:49:38;2.77;;;1.53;;
9892;SDS011;4985;49.092;8.542;2023-04-22T12:52:05;2.37;;;1.50;;
9892;SDS011;4985;49.092;8.542;2023-04-22T12:54:33;1.40;;;1.30;;
9892;SDS011;4985;49.092;8.542;2023-04-22T12:57:00;2.63;;;1.70;;
9892;SDS011;4985;49.092;8.542;2023-04-22T12:59:27;4.20;;;1.30;;
9892;SDS011;4985;49.092;8.542;2023-04-22T13:01:54;1.80;;;1.70;;
9892;SDS011;4985;49.092;8.542;2023-04-22T13:04:21;2.13;;;1.57;;
9892;SDS011;4985;49.092;8.542;2023-04-22T13:06:47;2.20;;;1.50;;
9892;SDS011;4985;49.092;8.542;2023-04-22T13:09:20;2.53;;;1.60;;
9892;SDS011;4985;49.092;8.542;2023-04-22T13:11:49;2.73;;;1.70;;
9892;SDS011;4985;49.092;8.542;2023-04-22T13:14:15;2.30;;;1.50;;
9892;SDS011;4985;49.092;8.542;2023-04-22T13:16:42;2.33;;;1.60;;
9892;SDS011;4985;49.092;8.542;2023-04-22T13:19:09;3.23;;;1.90;;
9892;SDS011;4985;49.092;8.542;2023-04-22T13:21:36;2.67;;;1.67;;
9892;SDS011;4985;49.092;8.542;2023-04-22T13:24:03;2.47;;;1.70;;
9892;SDS011;4985;49.092;8.542;2023-04-22T13:26:29;1.63;;;1.50;;
9892;SDS011;4985;49.092;8.542;2023-04-22T13:28:57;1.47;;;1.30;;
9892;SDS011;4985;49.092;8.542;2023-04-22T13:31:24;5.30;;;1.60;;
9892;SDS011;4985;49.092;8.542;2023-04-22T13:33:51;1.80;;;1.23;;
9892;SDS011;4985;49.092;8.542;2023-04-22T13:36:17;3.93;;;1.53;;
9892;SDS011;4985;49.092;8.542;2023-04-22T13:38:44;2.90;;;1.70;;
9892;SDS011;4985;49.092;8.542;2023-04-22T13:41:11;1.57;;;1.40;;
9892;SDS011;4985;49.092;8.542;2023-04-22T13:43:37;2.90;;;1.53;;
9892;SDS011;4985;49.092;8.542;2023-04-22T13:46:05;1.73;;;1.40;;
9892;SDS011;4985;49.092;8.542;2023-04-22T13:48:32;3.93;;;1.40;;
9892;SDS011;4985;49.092;8.542;2023-04-22T13:50:58;1.67;;;1.33;;
9892;SDS011;4985;49.092;8.542;2023-04-22T13:53:25;3.23;;;1.67;;
9892;SDS011;4985;49.092;8.542;2023-04-22T13:55:51;3.20;;;1.33;;
9892;SDS011;4985;49.092;8.542;2023-04-22T13:58:18;2.33;;;1.40;;
9892;SDS011;4985;49.092;8.542;2023-04-22T14:00:44;2.07;;;1.40;;
9892;SDS011;4985;49.092;8.542;2023-04-22T14:03:12;2.50;;;1.50;;
9892;SDS011;4985;49.092;8.542;2023-04-22T14:05:39;2.93;;;1.73;;
9892;SDS011;4985;49.092;8.542;2023-04-22T14:08:05;2.50;;;1.70;;
9892;SDS011;4985;49.092;8.542;2023-04-22T14:10:32;1.70;;;1.53;;
9892;SDS011;4985;49.092;8.542;2023-04-22T14:12:59;1.70;;;1.30;;
9892;SDS011;4985;49.092;8.542;2023-04-22T14:15:25;2.57;;;1.80;;
9892;SDS011;4985;49.092;8.542;2023-04-22T14:17:52;4.37;;;1.67;;
9892;SDS011;4985;49.092;8.542;2023-04-22T14:20:20;2.50;;;1.50;;
9892;SDS011;4985;49.092;8.542;2023-04-22T14:22:49;3.57;;;1.70;;
9892;SDS011;4985;49.092;8.542;2023-04-22T14:25:15;3.93;;;1.60;;
9892;SDS011;4985;49.092;8.542;2023-04-22T14:27:42;3.70;;;1.60;;
9892;SDS011;4985;49.092;8.542;2023-04-22T14:30:09;2.07;;;1.60;;
9892;SDS011;4985;49.092;8.542;2023-04-22T14:32:36;4.83;;;1.60;;
9892;SDS011;4985;49.092;8.542;2023-04-22T14:35:03;2.27;;;1.50;;
9892;SDS011;4985;49.092;8.542;2023-04-22T14:37:31;2.23;;;1.63;;
9892;SDS011;4985;49.092;8.542;2023-04-22T14:39:59;1.60;;;1.30;;
9892;SDS011;4985;49.092;8.542;2023-04-22T14:42:26;1.67;;;1.40;;
9892;SDS011;4985;49.092;8.542;2023-04-22T14:44:53;2.07;;;1.47;;
9892;SDS011;4985;49.092;8.542;2023-04-22T14:47:20;2.13;;;1.53;;
9892;SDS011;4985;49.092;8.542;2023-04-22T14:49:46;1.67;;;1.40;;
9892;SDS011;4985;49.092;8.542;2023-04-22T14:52:13;1.70;;;1.43;;
9892;SDS011;4985;49.092;8.542;2023-04-22T14:54:41;2.00;;;1.63;;
9892;SDS011;4985;49.092;8.542;2023-04-22T14:57:07;1.87;;;1.37;;
9892;SDS011;4985;49.092;8.542;2023-04-22T14:59:34;3.43;;;1.77;;
9892;SDS011;4985;49.092;8.542;2023-04-22T15:02:00;3.13;;;1.40;;
9892;SDS011;4985;49.092;8.542;2023-04-22T15:04:27;2.23;;;1.40;;
9892;SDS011;4985;49.092;8.542;2023-04-22T15:06:54;2.77;;;1.50;;
9892;SDS011;4985;49.092;8.542;2023-04-22T15:09:21;4.80;;;1.57;;
9892;SDS011;4985;49.092;8.542;2023-04-22T15:11:49;1.63;;;1.50;;
9892;SDS011;4985;49.092;8.542;2023-04-22T15:14:18;2.20;;;1.43;;
9892;SDS011;4985;49.092;8.542;2023-04-22T15:16:45;2.87;;;1.53;;